createdAt,value
2019-05-16T00:02:08.366Z,11.80
2019-05-16T00:04:37.988Z,11.80
2019-05-16T00:07:08.054Z,11.70
2019-05-16T00:09:38.196Z,11.70
2019-05-16T00:12:08.814Z,11.70
2019-05-16T00:14:38.590Z,11.70
2019-05-16T00:17:08.451Z,11.60
2019-05-16T00:19:38.220Z,11.60
2019-05-16T00:22:08.724Z,11.50
2019-05-16T00:24:38.422Z,11.40
2019-05-16T00:27:08.290Z,11.40
2019-05-16T00:29:38.292Z,11.50
2019-05-16T00:32:08.620Z,11.50
2019-05-16T00:34:38.507Z,11.60
2019-05-16T00:37:08.694Z,11.70
2019-05-16T00:39:38.814Z,11.70
2019-05-16T00:42:08.790Z,11.70
2019-05-16T00:44:38.683Z,11.80
2019-05-16T00:47:08.739Z,11.70
2019-05-16T00:49:38.678Z,11.70
2019-05-16T00:52:08.229Z,11.70
2019-05-16T00:54:38.363Z,11.70
2019-05-16T00:57:08.619Z,11.70
2019-05-16T00:59:39.231Z,11.60
2019-05-16T01:02:09.018Z,11.60
2019-05-16T01:04:38.490Z,11.50
2019-05-16T01:07:08.331Z,11.60
2019-05-16T01:09:38.616Z,11.60
2019-05-16T01:12:08.486Z,11.70
2019-05-16T01:14:38.480Z,11.70
2019-05-16T01:17:08.627Z,11.70
2019-05-16T01:19:38.395Z,11.70
2019-05-16T01:22:08.366Z,11.60
2019-05-16T01:24:38.638Z,11.60
2019-05-16T01:27:08.810Z,11.50
2019-05-16T01:29:38.503Z,11.60
2019-05-16T01:32:08.492Z,11.60
2019-05-16T01:34:37.934Z,11.50
2019-05-16T01:37:08.291Z,11.50
2019-05-16T01:39:38.214Z,11.50
2019-05-16T01:42:08.084Z,11.40
2019-05-16T01:44:38.146Z,11.30
2019-05-16T01:47:09.005Z,11.30
2019-05-16T01:49:38.815Z,11.20
2019-05-16T01:52:08.645Z,11.20
2019-05-16T01:54:38.849Z,11.20
2019-05-16T01:57:08.350Z,11.20
2019-05-16T01:59:38.129Z,11.10
2019-05-16T02:02:08.421Z,11.10
2019-05-16T02:04:38.088Z,11.00
2019-05-16T02:07:08.642Z,11.00
2019-05-16T02:09:38.445Z,11.00
2019-05-16T02:12:10.699Z,11.00
2019-05-16T02:14:38.976Z,11.00
2019-05-16T02:17:11.136Z,10.90
2019-05-16T02:19:39.413Z,10.80
2019-05-16T02:22:09.038Z,10.70
2019-05-16T02:24:38.966Z,10.80
2019-05-16T02:27:09.553Z,10.80
2019-05-16T02:29:40.110Z,10.80
2019-05-16T02:32:11.518Z,10.80
2019-05-16T02:34:41.677Z,10.90
2019-05-16T02:37:23.613Z,10.90
2019-05-16T02:39:42.246Z,10.80
2019-05-16T02:42:12.154Z,10.80
2019-05-16T02:44:41.632Z,10.80
2019-05-16T02:47:11.160Z,10.80
2019-05-16T02:49:41.955Z,10.70
2019-05-16T02:52:11.735Z,10.70
2019-05-16T02:54:41.542Z,10.60
2019-05-16T02:57:11.491Z,10.60
2019-05-16T02:59:41.714Z,10.60
2019-05-16T03:02:11.556Z,10.70
2019-05-16T03:04:44.232Z,10.50
2019-05-16T03:07:31.551Z,10.40
2019-05-16T03:09:45.079Z,10.40
2019-05-16T03:12:15.124Z,10.30
2019-05-16T03:14:46.824Z,10.30
2019-05-16T03:17:21.355Z,10.30
2019-05-16T03:19:51.264Z,10.30
2019-05-16T03:22:22.188Z,10.20
2019-05-16T03:24:51.704Z,10.10
2019-05-16T03:27:21.690Z,10.00
2019-05-16T03:29:51.100Z,10.00
2019-05-16T03:32:24.181Z,10.00
2019-05-16T03:34:54.654Z,10.10
2019-05-16T03:37:24.829Z,10.10
2019-05-16T03:39:54.225Z,10.00
2019-05-16T03:42:23.538Z,10.10
2019-05-16T03:44:52.827Z,10.10
2019-05-16T03:47:22.148Z,10.20
2019-05-16T03:49:51.941Z,10.30
2019-05-16T03:52:21.547Z,10.30
2019-05-16T03:54:50.923Z,10.20
2019-05-16T03:57:21.253Z,10.20
2019-05-16T03:59:51.772Z,10.30
2019-05-16T04:02:21.716Z,10.30
2019-05-16T04:04:51.355Z,10.30
2019-05-16T04:07:21.599Z,10.20
2019-05-16T04:09:51.048Z,10.20
2019-05-16T04:12:21.387Z,10.30
2019-05-16T04:14:51.364Z,10.40
2019-05-16T04:17:21.282Z,10.50
2019-05-16T04:19:51.040Z,10.50
2019-05-16T04:22:21.481Z,10.50
2019-05-16T04:24:51.404Z,10.60
2019-05-16T04:27:21.595Z,10.60
2019-05-16T04:29:51.618Z,10.70
2019-05-16T04:32:21.207Z,10.70
2019-05-16T04:34:51.174Z,10.70
2019-05-16T04:37:22.745Z,10.70
2019-05-16T04:39:51.843Z,10.80
2019-05-16T04:42:21.509Z,10.70
2019-05-16T04:44:51.760Z,10.70
2019-05-16T04:47:21.245Z,10.80
2019-05-16T04:49:51.982Z,10.80
2019-05-16T04:52:21.944Z,10.80
2019-05-16T04:54:51.516Z,10.90
2019-05-16T04:57:21.089Z,10.90
2019-05-16T04:59:51.019Z,10.90
2019-05-16T05:02:21.342Z,10.90
2019-05-16T05:04:51.128Z,10.90
2019-05-16T05:07:20.932Z,10.90
2019-05-16T05:09:51.337Z,10.90
2019-05-16T05:12:21.082Z,10.90
2019-05-16T05:14:51.120Z,11.10
2019-05-16T05:17:21.183Z,11.10
2019-05-16T05:19:50.833Z,11.00
2019-05-16T05:22:20.249Z,11.00
2019-05-16T05:24:50.750Z,11.00
2019-05-16T05:27:20.231Z,11.10
2019-05-16T05:29:50.274Z,11.10
2019-05-16T05:32:20.140Z,11.10
2019-05-16T05:34:50.351Z,11.00
2019-05-16T05:37:20.414Z,11.00
2019-05-16T05:39:50.520Z,11.00
2019-05-16T05:42:20.114Z,11.20
2019-05-16T05:44:50.834Z,11.10
2019-05-16T05:47:20.324Z,11.10
2019-05-16T05:49:50.011Z,11.10
2019-05-16T05:52:20.887Z,11.20
2019-05-16T05:54:50.423Z,11.30
2019-05-16T05:57:20.854Z,11.40
2019-05-16T05:59:50.309Z,11.30
2019-05-16T06:02:20.139Z,11.40
2019-05-16T06:04:50.234Z,11.40
2019-05-16T06:07:20.544Z,11.40
2019-05-16T06:09:55.682Z,11.30
2019-05-16T06:12:21.499Z,11.30
2019-05-16T06:14:50.908Z,11.20
2019-05-16T06:17:20.303Z,11.30
2019-05-16T06:19:49.944Z,11.40
2019-05-16T06:22:20.527Z,11.40
2019-05-16T06:24:50.580Z,11.40
2019-05-16T06:27:21.024Z,11.40
2019-05-16T06:29:50.439Z,11.40
2019-05-16T06:32:20.007Z,11.50
2019-05-16T06:34:50.705Z,11.70
2019-05-16T06:37:20.659Z,11.80
2019-05-16T06:39:50.349Z,11.90
2019-05-16T06:42:20.627Z,12.00
2019-05-16T06:44:50.497Z,12.00
2019-05-16T06:47:22.886Z,12.10
2019-05-16T06:49:51.147Z,12.20
2019-05-16T06:52:20.419Z,12.10
2019-05-16T06:54:51.044Z,12.00
2019-05-16T06:57:20.998Z,12.00
2019-05-16T06:59:50.291Z,12.10
2019-05-16T07:02:30.449Z,12.10
2019-05-16T07:04:50.755Z,12.20
2019-05-16T07:07:20.598Z,12.10
2019-05-16T07:09:59.938Z,12.20
2019-05-16T07:12:20.987Z,12.40
2019-05-16T07:14:50.656Z,12.60
2019-05-16T07:17:20.341Z,12.60
2019-05-16T07:19:50.238Z,12.70
2019-05-16T07:22:20.567Z,12.70
2019-05-16T07:24:50.489Z,12.70
2019-05-16T07:27:21.848Z,12.60
2019-05-16T07:29:51.224Z,12.50
2019-05-16T07:32:20.519Z,12.50
2019-05-16T07:34:50.036Z,12.60
2019-05-16T07:37:20.104Z,12.70
2019-05-16T07:39:51.046Z,12.70
2019-05-16T07:42:20.785Z,12.80
2019-05-16T07:44:50.585Z,12.90
2019-05-16T07:47:20.391Z,12.90
2019-05-16T07:49:50.251Z,13.10
2019-05-16T07:52:20.995Z,13.10
2019-05-16T07:54:50.891Z,13.20
2019-05-16T07:57:22.847Z,13.20
2019-05-16T07:59:51.292Z,13.30
2019-05-16T08:02:21.091Z,13.50
2019-05-16T08:04:50.549Z,13.80
2019-05-16T08:07:20.223Z,14.00
2019-05-16T08:09:50.571Z,14.10
2019-05-16T08:12:25.903Z,14.10
2019-05-16T08:14:51.416Z,14.10
2019-05-16T08:17:21.727Z,14.10
2019-05-16T08:19:51.240Z,14.20
2019-05-16T08:22:22.431Z,14.10
2019-05-16T08:24:51.944Z,14.00
2019-05-16T08:27:21.216Z,13.80
2019-05-16T08:32:23.045Z,14.30
2019-05-16T08:34:52.511Z,14.80
2019-05-16T08:37:36.945Z,15.20
2019-05-16T08:39:52.780Z,15.30
2019-05-16T08:42:22.344Z,15.30
2019-05-16T08:44:52.126Z,15.40
2019-05-16T08:47:21.563Z,15.40
2019-05-16T08:49:52.113Z,15.50
2019-05-16T08:54:52.737Z,15.40
2019-05-16T08:57:27.814Z,15.30
2019-05-16T08:59:53.036Z,15.40
2019-05-16T09:02:31.482Z,15.30
2019-05-16T09:04:53.842Z,15.50
2019-05-16T09:07:23.421Z,15.50
2019-05-16T09:09:52.715Z,15.60
2019-05-16T09:10:21.439Z,15.40
2019-05-16T09:10:34.527Z,13.90
2019-05-16T09:12:21.992Z,15.80
2019-05-16T09:14:51.295Z,16.10
2019-05-16T09:17:20.583Z,16.40
2019-05-16T09:19:49.855Z,16.80
2019-05-16T09:22:19.152Z,17.30
2019-05-16T09:24:48.468Z,17.40
2019-05-16T09:27:18.086Z,17.70
2019-05-16T09:29:47.599Z,17.90
2019-05-16T09:32:22.050Z,18.20
2019-05-16T09:34:48.123Z,18.20
2019-05-16T09:37:18.105Z,18.30
2019-05-16T09:39:48.220Z,18.30
2019-05-16T09:42:17.616Z,18.40
2019-05-16T09:44:47.549Z,18.50
2019-05-16T09:47:18.657Z,18.50
2019-05-16T09:49:47.939Z,18.30
2019-05-16T09:52:17.237Z,18.40
2019-05-16T09:54:46.958Z,18.60
2019-05-16T09:57:17.469Z,18.60
2019-05-16T09:59:47.004Z,18.80
2019-05-16T10:02:17.649Z,18.70
2019-05-16T10:04:47.585Z,18.70
2019-05-16T10:07:17.821Z,19.00
2019-05-16T10:09:50.258Z,19.20
2019-05-16T10:12:18.834Z,19.00
2019-05-16T10:14:48.315Z,18.90
2019-05-16T10:17:17.844Z,19.10
2019-05-16T10:19:47.701Z,18.90
2019-05-16T10:22:17.543Z,18.50
2019-05-16T10:24:47.014Z,18.20
2019-05-16T10:27:17.160Z,17.60
2019-05-16T10:29:48.508Z,17.30
2019-05-16T10:32:17.608Z,17.10
2019-05-16T10:34:46.956Z,17.00
2019-05-16T10:37:17.584Z,16.80
2019-05-16T10:39:47.283Z,16.90
2019-05-16T10:42:28.126Z,17.50
2019-05-16T10:44:48.622Z,18.20
2019-05-16T10:47:18.047Z,18.30
2019-05-16T10:49:47.807Z,18.40
2019-05-16T10:52:17.225Z,18.50
2019-05-16T10:54:57.636Z,18.60
2019-05-16T10:57:18.060Z,18.50
2019-05-16T11:00:04.132Z,18.30
2019-05-16T11:02:18.649Z,18.20
2019-05-16T11:05:00.047Z,18.40
2019-05-16T11:07:19.100Z,18.60
2019-05-16T11:09:57.953Z,18.80
2019-05-16T11:12:20.534Z,18.90
2019-05-16T11:14:49.984Z,19.00
2019-05-16T11:17:19.283Z,19.30
2019-05-16T11:19:48.564Z,19.40
2019-05-16T11:22:17.840Z,19.60
2019-05-16T11:24:47.270Z,20.10
2019-05-16T11:27:16.583Z,20.40
2019-05-16T11:29:47.290Z,20.70
2019-05-16T11:32:16.748Z,21.20
2019-05-16T11:34:47.955Z,21.30
2019-05-16T11:37:17.666Z,21.20
2019-05-16T11:39:47.179Z,20.90
2019-05-16T11:42:17.537Z,20.20
2019-05-16T11:44:47.867Z,20.00
2019-05-16T11:47:17.395Z,19.80
2019-05-16T11:49:47.641Z,19.90
2019-05-16T11:52:18.041Z,20.70
2019-05-16T11:54:47.521Z,21.40
2019-05-16T11:57:17.891Z,22.00
2019-05-16T11:59:47.492Z,22.20
2019-05-16T12:02:17.474Z,21.90
2019-05-16T12:04:47.443Z,21.50
2019-05-16T12:07:19.214Z,21.10
2019-05-16T12:09:54.563Z,20.60
2019-05-16T12:12:20.758Z,20.40
2019-05-16T12:14:49.768Z,20.30
2019-05-16T12:17:19.039Z,20.30
2019-05-16T12:19:52.549Z,20.30
2019-05-16T12:22:19.339Z,20.10
2019-05-16T12:24:48.612Z,20.20
2019-05-16T12:27:18.012Z,20.10
2019-05-16T12:29:54.162Z,20.40
2019-05-16T12:32:18.632Z,20.60
2019-05-16T12:34:47.907Z,20.70
2019-05-16T12:37:17.217Z,20.50
2019-05-16T12:39:47.109Z,20.50
2019-05-16T12:42:16.755Z,20.90
2019-05-16T12:44:46.884Z,20.90
2019-05-16T12:47:16.419Z,20.70
2019-05-16T12:49:47.238Z,20.90
2019-05-16T12:52:16.751Z,20.90
2019-05-16T12:54:47.549Z,20.90
2019-05-16T12:57:18.166Z,20.70
2019-05-16T12:59:50.053Z,20.50
2019-05-16T13:02:21.637Z,20.20
2019-05-16T13:04:49.887Z,20.30
2019-05-16T13:07:19.500Z,20.30
2019-05-16T13:09:50.201Z,20.40
2019-05-16T13:12:19.749Z,20.50
2019-05-16T13:14:49.019Z,20.50
2019-05-16T13:17:18.317Z,20.50
2019-05-16T13:19:48.367Z,20.40
2019-05-16T13:22:17.831Z,20.20
2019-05-16T13:24:47.959Z,19.70
2019-05-16T13:27:22.799Z,19.50
2019-05-16T13:29:48.685Z,19.30
2019-05-16T13:32:17.983Z,18.90
2019-05-16T13:34:47.335Z,18.70
2019-05-16T13:37:17.923Z,18.60
2019-05-16T13:39:47.763Z,18.50
2019-05-16T13:42:17.175Z,18.30
2019-05-16T13:44:47.109Z,18.20
2019-05-16T13:47:17.423Z,18.10
2019-05-16T13:49:46.939Z,18.10
2019-05-16T13:52:16.733Z,18.00
2019-05-16T13:54:46.082Z,17.80
2019-05-16T13:57:17.211Z,17.80
2019-05-16T13:59:46.376Z,17.90
2019-05-16T14:02:17.454Z,18.00
2019-05-16T14:04:46.926Z,17.80
2019-05-16T14:07:17.205Z,17.70
2019-05-16T14:09:47.274Z,17.30
2019-05-16T14:12:17.639Z,17.30
2019-05-16T14:14:47.829Z,17.10
2019-05-16T14:17:17.983Z,16.80
2019-05-16T14:19:48.011Z,16.70
2019-05-16T14:22:17.753Z,16.50
2019-05-16T14:24:48.096Z,16.30
2019-05-16T14:27:17.838Z,16.00
2019-05-16T14:29:47.707Z,15.90
2019-05-16T14:32:19.686Z,15.80
2019-05-16T14:34:51.475Z,15.70
2019-05-16T14:37:19.285Z,15.70
2019-05-16T14:39:48.923Z,15.70
2019-05-16T14:42:18.715Z,15.60
2019-05-16T14:45:04.874Z,15.70
2019-05-16T14:47:18.992Z,15.70
2019-05-16T14:49:48.980Z,15.60
2019-05-16T14:52:18.472Z,15.60
2019-05-16T14:54:47.801Z,15.60
2019-05-16T14:57:17.164Z,15.50
2019-05-16T14:59:47.107Z,15.20
2019-05-16T15:02:18.114Z,15.00
2019-05-16T15:04:49.522Z,14.80
2019-05-16T15:07:19.376Z,14.70
2019-05-16T15:09:48.971Z,14.60
2019-05-16T15:12:18.251Z,14.60
2019-05-16T15:14:47.548Z,14.50
2019-05-16T15:17:16.911Z,14.60
2019-05-16T15:19:46.743Z,14.60
2019-05-16T15:22:16.766Z,14.30
2019-05-16T15:24:46.340Z,14.20
2019-05-16T15:27:17.005Z,14.00
2019-05-16T15:29:48.111Z,14.00
2019-05-16T15:32:17.788Z,14.10
2019-05-16T15:34:47.800Z,14.00
2019-05-16T15:37:17.350Z,13.90
2019-05-16T15:39:47.574Z,13.90
2019-05-16T15:42:18.052Z,13.80
2019-05-16T15:44:48.069Z,13.80
2019-05-16T15:47:18.255Z,13.70
2019-05-16T15:49:47.831Z,13.60
2019-05-16T15:52:18.825Z,13.30
2019-05-16T15:54:50.457Z,13.10
2019-05-16T15:57:19.755Z,13.10
2019-05-16T15:59:49.055Z,13.10
2019-05-16T16:02:18.391Z,13.10
2019-05-16T16:04:47.883Z,13.10
2019-05-16T16:07:18.166Z,12.90
2019-05-16T16:09:47.707Z,12.90
2019-05-16T16:12:17.309Z,12.80
2019-05-16T16:14:46.856Z,12.80
2019-05-16T16:17:17.613Z,12.80
2019-05-16T16:19:47.364Z,12.70
2019-05-16T16:22:17.705Z,12.60
2019-05-16T16:24:47.886Z,12.50
2019-05-16T16:27:17.411Z,12.40
2019-05-16T16:29:48.006Z,12.40
2019-05-16T16:32:19.592Z,12.40
2019-05-16T16:34:49.189Z,12.30
2019-05-16T16:37:18.820Z,12.20
2019-05-16T16:39:48.423Z,12.30
2019-05-16T16:42:17.703Z,12.40
2019-05-16T16:44:47.292Z,12.40
2019-05-16T16:47:17.621Z,12.40
2019-05-16T16:49:47.144Z,12.40
2019-05-16T16:52:16.816Z,12.40
2019-05-16T16:54:47.631Z,12.30
2019-05-16T16:57:17.712Z,12.10
2019-05-16T16:59:47.793Z,12.00
2019-05-16T17:02:17.464Z,11.90
2019-05-16T17:04:50.956Z,11.80
2019-05-16T17:07:17.999Z,11.70
2019-05-16T17:09:47.327Z,11.60
2019-05-16T17:12:16.615Z,11.60
2019-05-16T17:14:46.495Z,11.60
2019-05-16T17:17:17.568Z,11.60
2019-05-16T17:19:47.465Z,11.50
2019-05-16T17:22:20.253Z,11.40
2019-05-16T17:24:47.848Z,11.40
2019-05-16T17:27:17.146Z,11.30
2019-05-16T17:29:47.403Z,11.30
2019-05-16T17:32:16.958Z,11.30
2019-05-16T17:34:46.271Z,11.30
2019-05-16T17:37:17.192Z,11.20
2019-05-16T17:39:47.461Z,11.10
2019-05-16T17:42:16.934Z,11.10
2019-05-16T17:44:47.260Z,11.10
2019-05-16T17:47:17.325Z,11.10
2019-05-16T17:49:46.803Z,11.10
2019-05-16T17:52:16.606Z,11.10
2019-05-16T17:54:46.125Z,11.00
2019-05-16T17:57:17.002Z,11.00
2019-05-16T17:59:48.030Z,10.90
2019-05-16T18:02:17.405Z,10.80
2019-05-16T18:04:47.233Z,10.80
2019-05-16T18:07:16.663Z,10.70
2019-05-16T18:09:48.347Z,10.70
2019-05-16T18:12:17.565Z,10.80
2019-05-16T18:14:50.208Z,10.70
2019-05-16T18:17:17.959Z,10.70
2019-05-16T18:19:47.296Z,10.70
2019-05-16T18:22:16.663Z,10.60
2019-05-16T18:24:47.439Z,10.60
2019-05-16T18:27:17.242Z,10.60
2019-05-16T18:29:47.081Z,10.60
2019-05-16T18:32:17.053Z,10.50
2019-05-16T18:34:46.595Z,10.50
2019-05-16T18:37:17.314Z,10.50
2019-05-16T18:39:47.452Z,10.50
2019-05-16T18:42:16.926Z,10.50
2019-05-16T18:44:47.194Z,10.50
2019-05-16T18:47:16.672Z,10.50
2019-05-16T18:49:47.284Z,10.50
2019-05-16T18:52:17.386Z,10.40
2019-05-16T18:54:46.738Z,10.40
2019-05-16T18:57:17.580Z,10.50
2019-05-16T18:59:47.304Z,10.40
2019-05-16T19:02:17.925Z,10.50
2019-05-16T19:04:49.851Z,10.40
2019-05-16T19:07:18.403Z,10.40
2019-05-16T19:09:47.738Z,10.30
2019-05-16T19:12:17.117Z,10.30
2019-05-16T19:14:47.267Z,10.30
2019-05-16T19:17:22.272Z,10.30
2019-05-16T19:19:48.222Z,10.20
2019-05-16T19:22:17.497Z,10.20
2019-05-16T19:24:46.863Z,10.10
2019-05-16T19:27:17.250Z,10.10
2019-05-16T19:29:46.799Z,10.00
2019-05-16T19:32:17.214Z,10.10
2019-05-16T19:34:49.158Z,10.00
2019-05-16T19:37:17.563Z,10.00
2019-05-16T19:39:46.855Z,10.00
2019-05-16T19:42:17.076Z,10.00
2019-05-16T19:44:46.557Z,9.90
2019-05-16T19:47:15.957Z,9.90
2019-05-16T19:49:46.439Z,9.90
2019-05-16T19:52:16.448Z,10.00
2019-05-16T19:54:47.080Z,10.00
2019-05-16T19:57:17.486Z,10.00
2019-05-16T19:59:47.266Z,10.10
2019-05-16T20:02:16.798Z,10.00
2019-05-16T20:04:47.099Z,10.00
2019-05-16T20:07:16.891Z,10.00
2019-05-16T20:09:47.049Z,9.90
2019-05-16T20:12:16.835Z,9.80
2019-05-16T20:14:47.283Z,9.90
2019-05-16T20:17:19.167Z,10.00
2019-05-16T20:19:47.753Z,9.90
2019-05-16T20:22:17.038Z,9.80
2019-05-16T20:24:46.853Z,9.80
2019-05-16T20:27:17.091Z,9.90
2019-05-16T20:29:47.499Z,9.90
2019-05-16T20:32:17.046Z,9.90
2019-05-16T20:34:46.951Z,9.90
2019-05-16T20:37:17.448Z,9.90
2019-05-16T20:39:46.964Z,9.90
2019-05-16T20:42:17.109Z,9.90
2019-05-16T20:44:49.810Z,9.70
2019-05-16T20:47:17.804Z,9.70
2019-05-16T20:49:50.246Z,9.70
2019-05-16T20:52:18.343Z,9.70
2019-05-16T20:54:49.837Z,9.70
2019-05-16T20:57:18.618Z,9.70
2019-05-16T20:59:49.100Z,9.80
2019-05-16T21:02:18.567Z,9.70
2019-05-16T21:04:47.866Z,9.70
2019-05-16T21:07:17.294Z,9.70
2019-05-16T21:09:46.639Z,9.70
2019-05-16T21:12:17.301Z,9.70
2019-05-16T21:14:46.789Z,9.60
2019-05-16T21:17:17.428Z,9.60
2019-05-16T21:19:48.323Z,9.70
2019-05-16T21:22:19.440Z,9.60
2019-05-16T21:24:48.902Z,9.70
2019-05-16T21:27:19.054Z,9.70
2019-05-16T21:29:48.647Z,9.70
2019-05-16T21:32:17.915Z,9.70
2019-05-16T21:34:47.200Z,9.70
2019-05-16T21:37:19.660Z,9.60
2019-05-16T21:39:47.951Z,9.70
2019-05-16T21:42:17.246Z,9.70
2019-05-16T21:44:46.716Z,9.60
2019-05-16T21:47:16.920Z,9.50
2019-05-16T21:49:47.421Z,9.50
2019-05-16T21:52:16.696Z,9.40
2019-05-16T21:54:47.229Z,9.40
2019-05-16T21:57:19.674Z,9.40
2019-05-16T21:59:47.811Z,9.40
2019-05-16T22:02:17.206Z,9.40
2019-05-16T22:04:47.389Z,9.50
2019-05-16T22:07:16.727Z,9.50
2019-05-16T22:09:46.591Z,9.40
2019-05-16T22:12:17.364Z,9.40
2019-05-16T22:14:56.966Z,9.40
2019-05-16T22:17:27.367Z,9.40
2019-05-16T22:19:56.509Z,9.50
2019-05-16T22:22:29.454Z,9.50
2019-05-16T22:24:57.409Z,9.50
2019-05-16T22:27:27.009Z,9.50
2019-05-16T22:29:56.865Z,9.50
2019-05-16T22:32:27.212Z,9.50
2019-05-16T22:34:59.782Z,9.50
2019-05-16T22:37:27.883Z,9.50
2019-05-16T22:39:59.648Z,9.60
2019-05-16T22:42:28.131Z,9.60
2019-05-16T22:44:57.734Z,9.60
2019-05-16T22:47:27.348Z,9.60
2019-05-16T22:49:56.750Z,9.60
2019-05-16T22:52:26.547Z,9.60
2019-05-16T22:54:56.720Z,9.60
2019-05-16T22:57:26.882Z,9.60
2019-05-16T22:59:56.913Z,9.60
2019-05-16T23:02:27.426Z,9.60
2019-05-16T23:04:56.836Z,9.50
2019-05-16T23:07:27.437Z,9.50
2019-05-16T23:09:56.870Z,9.50
2019-05-16T23:12:26.618Z,9.50
2019-05-16T23:14:56.935Z,9.50
2019-05-16T23:17:26.783Z,9.60
2019-05-16T23:19:56.768Z,9.50
2019-05-16T23:22:27.376Z,9.40
2019-05-16T23:24:57.079Z,9.40
2019-05-16T23:27:27.298Z,9.40
2019-05-16T23:29:56.902Z,9.40
2019-05-16T23:32:27.088Z,9.40
2019-05-16T23:34:57.201Z,9.40
2019-05-16T23:37:27.406Z,9.50
2019-05-16T23:39:56.933Z,9.50
2019-05-16T23:42:26.484Z,9.40
2019-05-16T23:44:56.737Z,9.50
2019-05-16T23:47:26.054Z,9.40
2019-05-16T23:49:56.791Z,9.40
2019-05-16T23:52:27.350Z,9.40
2019-05-16T23:54:57.172Z,9.40
2019-05-16T23:57:26.678Z,9.40
2019-05-16T23:59:56.881Z,9.40
